NCAR-RAP Real-Time Weather Data

Output produced by METARs form (26 June 2017  00:13 UTC)
found at http://weather.rap.ucar.edu/surface/
 
KBWI 252354Z 29010G15KT 10SM FEW080 SCT130 SCT200 26/09 A3000 RMK AO2 SLP157 T02610094 10300 20261 53013
KBWI 252254Z 28013G20KT 10SM FEW080 SCT110 SCT250 28/08 A2998 RMK AO2 SLP151 T02780078
KBWI 252154Z 28013G19KT 10SM SCT080 SCT100 SCT250 28/09 A2996 RMK AO2 SLP144 T02830094
KBWI 252054Z 27011KT 10SM SCT080 SCT100 SCT250 29/11 A2996 RMK AO2 SLP144 T02940111 56011
KBWI 251954Z 27011KT 10SM SCT070 SCT090 SCT250 29/10 A2997 RMK AO2 SLP146 T02940100
KBWI 251854Z 24009KT 10SM SCT065 SCT100 BKN250 29/13 A2998 RMK AO2 SLP149 T02890133
KBWI 251754Z 30013G18KT 10SM SCT060 SCT250 29/13 A2999 RMK AO2 SLP155 T02890133 10289 20222 58010
KBWI 251654Z 26012KT 10SM FEW075 SCT090 BKN250 27/14 A3001 RMK AO2 SLP162 ACC OHD T02720144
KBWI 251554Z 29007KT 10SM SCT050 SCT100 BKN250 28/16 A3002 RMK AO2 SLP163 T02780156
KBWI 251454Z 36005KT 10SM BKN090 BKN250 27/15 A3002 RMK AO2 SLP165 ACC ALQDS T02720150 50004
KBWI 251354Z 30007KT 10SM BKN090 BKN100 BKN250 25/16 A3003 RMK AO2 SLP166 ACC ALQDS T02500161
KBWI 251254Z 29006KT 10SM BKN090 BKN110 BKN250 26/17 A3002 RMK AO2 SLP165 T02560172
KBWI 251154Z 00000KT 10SM SCT085 SCT110 BKN250 22/17 A3001 RMK AO2 SLP161 T02220172 10222 20194 51018
KBWI 251054Z 00000KT 10SM BKN085 BKN100 BKN250 21/17 A3000 RMK AO2 SLP156 ACC ALQDS T02060172
KBWI 250954Z 00000KT 10SM SCT085 BKN110 BKN250 20/16 A2998 RMK AO2 SLP150 ACC ALQDS T02000161
KBWI 250854Z 28004KT 10SM FEW085 FEW250 20/16 A2996 RMK AO2 SLP143 T02000156 53001
KBWI 250754Z 29006KT 10SM FEW090 21/16 A2995 RMK AO2 SLP141 T02060156
KBWI 250654Z 29005KT 10SM FEW085 FEW110 20/16 A2995 RMK AO2 SLP142 T02000161
KBWI 250554Z 26004KT 10SM FEW085 FEW110 21/16 A2996 RMK AO2 SLP142 T02110161 10267 20183 51002
KBWI 250454Z 28005KT 10SM FEW085 FEW100 FEW250 20/17 A2996 RMK AO2 SLP142 T02000172 403060183
KBWI 250354Z 25003KT 10SM FEW075 FEW110 SCT250 21/17 A2996 RMK AO2 SLP144 T02110172
KBWI 250254Z 32003KT 10SM FEW050 BKN250 21/17 A2995 RMK AO2 SLP141 T02060172 51019
KBWI 250154Z 00000KT 10SM FEW050 BKN250 23/17 A2994 RMK AO2 SLP137 T02280167
KBWI 250054Z 22003KT 10SM FEW055 FEW150 SCT250 24/16 A2991 RMK AO2 SLP128 T02440161
KBWI 242354Z 26006KT 10SM FEW065 FEW150 SCT250 27/15 A2990 RMK AO2 SLP122 T02670150 10306 20267 53006
KBWI 242254Z 28013KT 10SM FEW065 FEW160 SCT250 28/14 A2988 RMK AO2 SLP118 T02830144
KBWI 242154Z 26011KT 10SM SCT070 SCT150 BKN250 29/16 A2987 RMK AO2 SLP115 T02940156
KBWI 242054Z 28013KT 10SM SCT065 SCT150 SCT250 30/14 A2988 RMK AO2 SLP116 T03000144 53010
KBWI 241954Z 26010G18KT 10SM SCT060 SCT150 BKN250 30/15 A2986 RMK AO2 SLP110 T03000150
KBWI 241854Z 28013G18KT 10SM SCT065 BKN250 29/16 A2986 RMK AO2 SLP109 T02940156
KBWI 241754Z 29011KT 10SM SCT060 BKN250 29/16 A2985 RMK AO2 SLP106 T02940156 10294 20239 51008
KBWI 241654Z 28012G19KT 10SM SCT060 SCT250 29/17 A2985 RMK AO2 SLP105 T02940167
KBWI 241554Z 30009G18KT 10SM SCT044 SCT250 29/18 A2984 RMK AO2 SLP103 T02890178
KBWI 241454Z 29016G22KT 10SM SCT043 SCT250 27/18 A2982 RMK AO2 PK WND 27028/1406 SLP097 T02720183 51036
KBWI 241354Z 30016G23KT 10SM FEW010 SCT250 27/19 A2979 RMK AO2 SLP085 T02670194
KBWI 241254Z 28015G24KT 10SM FEW016 FEW080 SCT250 25/20 A2975 RMK AO2 SLP074 T02500200
KBWI 241154Z 28010KT 10SM FEW010 FEW080 SCT250 24/21 A2972 RMK AO2 SLP061 60015 70018 T02390206 10272 20217 51056
KBWI 241054Z 26006KT 10SM FEW016 FEW080 SCT120 SCT160 BKN250 22/21 A2969 RMK AO2 SLP051 T02220211
KBWI 240954Z 28013G18KT 10SM FEW016 FEW034 BKN080 BKN140 BKN250 22/21 A2966 RMK AO2 PK WND 28027/0904 WSHFT 0857 RAB02E25 SLP040 CB DSNT NE-E MOV E P0011 T02220211
KBWI 240913Z 31013G27KT 4SM R10/4000VP6000FT RA BR FEW014 BKN034CB BKN075 BKN250 23/23 A2960 RMK AO2 PK WND 28027/0904 WSHFT 0857 RAB02 PRESRR CB NE-SE MOV E P0011 T02330228
KBWI 240910Z 30016G27KT 2SM R10/4000VP6000FT +RA BR FEW018 BKN034CB OVC075 23/23 A2959 RMK AO2 PK WND 28027/0904 RAB02 CB NE-SE MOV E P0009 T02330228
KBWI 240906Z 30018G27KT 3/4SM R10/4000VP6000FT +RA BR BKN034CB BKN060 OVC075 24/23 A2959 RMK AO2 PK WND 28027/0904 RAB02 PRESRR CB ALQDS MOV E P0000 T02440233
KBWI 240854Z 18008KT 8SM FEW034CB SCT041 BKN049 OVC250 24/24 A2955 RMK AO2 RAE00B36E54 SLP005 CB SW-NW MOV E TCU S P0000 60004 T02440239 58032
KBWI 240754Z 14004KT 9SM -RA FEW040 SCT050 OVC090 24/23 A2958 RMK AO2 SLP015 P0002 T02390233
KBWI 240654Z 22003KT 6SM -RA BR SCT046 BKN060 OVC110 25/23 A2963 RMK AO2 SLP031 P0002 T02500233
KBWI 240554Z 23010KT 10SM -RA FEW110 BKN140 OVC210 27/22 A2965 RMK AO2 RAB37 SLP037 P0000 60000 T02720222 10289 20272 56016
KBWI 240454Z 22010KT 10SM BKN100 BKN210 BKN250 28/22 A2966 RMK AO2 SLP041 T02830217 403220217
KBWI 240354Z 21009KT 10SM BKN100 BKN160 BKN250 28/23 A2967 RMK AO2 SLP047 T02830228
KBWI 240254Z 20007KT 10SM BKN090 BKN160 28/23 A2969 RMK AO2 SLP053 T02830233 50005
KBWI 240154Z 21010KT 10SM FEW042 SCT090 BKN160 28/23 A2970 RMK AO2 SLP054 T02830228
KBWI 240054Z 22009KT 10SM FEW040 SCT080 SCT160 BKN250 29/23 A2969 RMK AO2 SLP052 T02890233
KBWI 232354Z 21009G15KT 10SM FEW032 SCT080 SCT160 SCT250 29/24 A2968 RMK AO2 SLP048 60000 T02890239 10322 20283 56007
KBWI 232254Z 21011G18KT 10SM FEW035 SCT080 BKN160 BKN200 29/23 A2968 RMK AO2 SLP050 T02940233
KBWI 232154Z 21013G21KT 10SM FEW035 FEW050 SCT110 BKN160 29/23 A2968 RMK AO2 RAE2056 SLP049 P0000 T02890233
KBWI 232054Z 21014G20KT 10SM -RA FEW050 SCT080 BKN110 BKN200 29/23 A2970 RMK AO2 RAB32 SLP055 P0000 60000 T02890228 58016
KBWI 231954Z 21010G19KT 10SM FEW036 SCT130 BKN200 31/23 A2971 RMK AO2 SLP061 T03060228
KBWI 231854Z 21015G24KT 10SM SCT033 BKN150 BKN250 31/23 A2973 RMK AO2 SLP066 T03110233
KBWI 231754Z 22009G17KT 10SM SCT031 BKN041 BKN150 BKN220 BKN250 30/23 A2975 RMK AO2 SLP071 60003 T03000233 10306 20217 57021
KBWI 231734Z 21009KT 10SM SCT028 SCT049 BKN140 BKN250 31/23 A2975 RMK AO2 T03060233
KBWI 231654Z 23009G17KT 10SM BKN028 BKN140 BKN250 29/24 A2977 RMK AO2 SLP079 T02940239
KBWI 231554Z 22011G19KT 10SM SCT017 BKN140 BKN250 28/24 A2978 RMK AO2 SLP084 T02780239
KBWI 231454Z 22008G16KT 10SM BKN015 BKN250 25/23 A2981 RMK AO2 SLP092 60003 T02500233 56022
KBWI 231354Z 21006KT 10SM SCT008 BKN014 OVC025 24/23 A2983 RMK AO2 SLP098 VCSH T02390228
KBWI 231254Z 19007KT 9SM SCT008 BKN015 OVC027 23/23 A2985 RMK AO2 RAE11 SLP106 P0003 T02280228